Time;durP1;ratioP1;P1;durP2;ratioP2;P2;SDS_P1;SDS_P2;PMS_P1;PMS_P2;Temp;Humidity;BMP_temperature;BMP_pressure;BME280_temperature;BME280_humidity;BME280_pressure;Samples;Min_cycle;Max_cycle;Signal;HPM_P1;HPM_P2
2024/04/24 00:03:02;;;;;;;7.73;5.50;;;8.00;99.90;;;;;;6783060;26;20544;-60
2024/04/24 00:06:19;;;;;;;9.23;7.07;;;8.00;99.90;;;;;;6842412;25;20463;-60
2024/04/24 00:09:26;;;;;;;8.00;6.53;;;8.00;99.90;;;;;;6827900;26;20481;-59
2024/04/24 00:12:33;;;;;;;6.93;5.90;;;8.00;99.90;;;;;;6757676;26;20465;-60
2024/04/24 00:15:44;;;;;;;7.30;6.03;;;8.00;99.90;;;;;;6756493;26;20461;-60
2024/04/24 00:18:51;;;;;;;6.40;5.80;;;7.90;99.90;;;;;;6758218;26;20469;-59
2024/04/24 00:22:03;;;;;;;6.60;6.00;;;7.90;99.90;;;;;;6792688;25;20526;-60
2024/04/24 00:25:12;;;;;;;8.77;6.73;;;7.90;99.90;;;;;;6789657;26;20461;-59
2024/04/24 00:28:19;;;;;;;7.20;5.67;;;7.90;99.90;;;;;;6797051;26;20471;-60
2024/04/24 00:31:34;;;;;;;6.10;5.50;;;8.00;99.90;;;;;;6790868;26;20456;-60
2024/04/24 00:34:39;;;;;;;7.20;6.00;;;7.90;99.90;;;;;;6775081;26;20804;-60
2024/04/24 00:37:51;;;;;;;6.77;6.17;;;7.90;99.90;;;;;;6768619;26;20586;-60
2024/04/24 00:41:03;;;;;;;7.33;6.57;;;7.90;99.90;;;;;;6799233;26;20491;-60
2024/04/24 00:44:13;;;;;;;5.60;5.10;;;7.70;99.90;;;;;;6782072;26;20594;-59
2024/04/24 00:47:25;;;;;;;7.00;6.30;;;7.60;99.90;;;;;;6783219;26;20479;-60
2024/04/24 00:50:38;;;;;;;6.27;5.77;;;7.70;99.90;;;;;;6789664;26;21188;-60
2024/04/24 00:54:01;;;;;;;6.60;5.90;;;7.70;99.90;;;;;;6779672;26;20605;-60
2024/04/24 00:57:17;;;;;;;5.63;4.73;;;7.70;99.90;;;;;;6788219;26;20489;-59
2024/04/24 01:00:27;;;;;;;6.20;5.20;;;7.70;99.90;;;;;;6792044;26;20480;-60
2024/04/24 01:03:40;;;;;;;6.47;5.57;;;7.70;99.90;;;;;;6787450;26;20479;-60
2024/04/24 01:06:57;;;;;;;6.30;5.47;;;7.80;99.90;;;;;;6800559;26;20776;-60
2024/04/24 01:10:17;;;;;;;5.23;4.80;;;7.70;99.90;;;;;;6795828;26;20483;-60
2024/04/24 01:13:31;;;;;;;6.10;5.10;;;7.70;99.90;;;;;;6802622;26;20598;-60
2024/04/24 01:16:43;;;;;;;5.17;4.67;;;7.80;99.90;;;;;;6802653;26;20934;-59
2024/04/24 01:19:59;;;;;;;5.10;4.60;;;7.70;99.90;;;;;;6800778;26;20582;-60
2024/04/24 01:23:33;;;;;;;7.70;6.40;;;7.80;99.90;;;;;;6801769;26;20448;-60
2024/04/24 01:27:09;;;;;;;8.40;6.73;;;7.70;99.90;;;;;;6802461;26;20557;-60
2024/04/24 01:30:18;;;;;;;17.80;9.80;;;7.70;99.90;;;;;;6802579;26;20535;-60
2024/04/24 01:33:34;;;;;;;12.43;9.37;;;7.60;99.90;;;;;;6802377;26;20571;-60
2024/04/24 01:36:39;;;;;;;9.60;7.80;;;7.60;99.90;;;;;;6801131;26;20784;-59
2024/04/24 01:39:49;;;;;;;9.13;6.87;;;7.50;99.90;;;;;;6797353;26;21031;-60
2024/04/24 01:43:20;;;;;;;7.50;6.17;;;7.50;99.90;;;;;;6794217;26;20548;-60
2024/04/24 01:46:29;;;;;;;6.33;4.80;;;7.40;99.90;;;;;;6768459;26;20472;-59
2024/04/24 01:49:56;;;;;;;5.80;4.90;;;7.40;99.90;;;;;;6795995;26;20581;-60
2024/04/24 01:53:02;;;;;;;5.03;4.50;;;7.40;99.90;;;;;;6793956;26;20532;-59
2024/04/24 01:56:17;;;;;;;4.50;4.07;;;7.30;99.90;;;;;;6794136;26;20483;-59
2024/04/24 01:59:27;;;;;;;5.40;4.90;;;7.40;99.90;;;;;;6756028;26;20525;-59
2024/04/24 02:02:49;;;;;;;4.77;4.37;;;7.40;99.90;;;;;;6755180;26;20832;-61
2024/04/24 02:05:54;;;;;;;6.53;3.77;;;7.40;99.90;;;;;;6763625;26;20520;-59
2024/04/24 02:09:07;;;;;;;4.60;3.70;;;7.30;99.90;;;;;;6800476;26;20524;-60
2024/04/24 02:12:17;;;;;;;5.97;4.27;;;7.30;99.90;;;;;;6800598;26;20452;-60
2024/04/24 02:15:41;;;;;;;4.60;4.30;;;7.30;99.90;;;;;;6801865;26;20519;-60
2024/04/24 02:18:50;;;;;;;4.20;3.17;;;7.40;99.90;;;;;;6801737;26;20756;-60
2024/04/24 02:22:02;;;;;;;3.87;3.57;;;7.40;99.90;;;;;;6800187;26;20535;-60
2024/04/24 02:28:37;;;;;;;3.63;3.00;;;7.40;99.90;;;;;;6845370;25;20576;-59
2024/04/24 02:31:51;;;;;;;3.87;3.50;;;7.40;99.90;;;;;;6846447;26;20519;-59
2024/04/24 02:35:03;;;;;;;3.77;3.27;;;7.50;99.90;;;;;;6845738;25;20569;-59
2024/04/24 02:38:11;;;;;;;3.50;3.20;;;7.40;99.90;;;;;;6844718;26;20935;-60
2024/04/24 02:41:26;;;;;;;3.13;2.60;;;7.50;99.90;;;;;;6846396;26;20522;-60
2024/04/24 02:44:34;;;;;;;3.50;3.20;;;7.50;99.90;;;;;;6805040;25;20471;-59
2024/04/24 02:47:46;;;;;;;3.27;2.97;;;7.50;99.90;;;;;;6801110;26;20545;-60
2024/04/24 02:50:53;;;;;;;3.10;2.90;;;7.50;99.90;;;;;;6801132;26;21332;-59
2024/04/24 02:54:06;;;;;;;3.87;3.23;;;7.50;99.90;;;;;;6801277;26;21307;-59
2024/04/24 02:57:13;;;;;;;3.77;3.20;;;7.40;99.90;;;;;;6801927;26;20460;-59
2024/04/24 03:00:20;;;;;;;3.47;3.20;;;7.40;99.90;;;;;;6801978;26;20827;-60
2024/04/24 03:03:43;;;;;;;3.53;3.27;;;7.40;99.90;;;;;;6801004;26;20561;-59
2024/04/24 03:06:53;;;;;;;3.57;3.27;;;7.40;99.90;;;;;;6799285;26;20508;-60
2024/04/24 03:09:59;;;;;;;3.77;3.20;;;7.40;99.90;;;;;;6799346;26;20575;-59
2024/04/24 03:13:11;;;;;;;4.73;3.90;;;7.40;99.90;;;;;;6799433;26;20511;-60
2024/04/24 03:16:20;;;;;;;4.07;3.77;;;7.40;99.90;;;;;;6799222;26;20499;-59
2024/04/24 03:19:32;;;;;;;6.00;3.60;;;7.40;99.90;;;;;;6799994;26;20886;-59
2024/04/24 03:22:42;;;;;;;3.53;3.23;;;7.30;99.90;;;;;;6799975;26;20471;-58
2024/04/24 03:25:48;;;;;;;5.17;4.00;;;7.30;99.90;;;;;;6800583;26;20582;-59
2024/04/24 03:28:56;;;;;;;4.63;4.10;;;7.20;99.90;;;;;;6801119;26;21044;-59
2024/04/24 03:32:03;;;;;;;3.27;2.97;;;7.00;99.90;;;;;;6801645;26;21339;-60
2024/04/24 03:35:18;;;;;;;3.70;3.40;;;6.90;99.90;;;;;;6806758;26;20527;-60
2024/04/24 03:38:28;;;;;;;5.10;4.07;;;6.80;99.90;;;;;;6804603;26;20464;-59
2024/04/24 03:41:38;;;;;;;3.07;2.77;;;6.90;99.90;;;;;;6804088;26;20512;-59
2024/04/24 03:44:45;;;;;;;3.10;2.83;;;6.90;99.90;;;;;;6802786;26;20945;-60
2024/04/24 03:48:01;;;;;;;3.10;2.80;;;7.00;99.90;;;;;;6803740;26;20456;-60
2024/04/24 03:51:13;;;;;;;2.97;2.77;;;7.00;99.90;;;;;;6795291;26;20657;-60
2024/04/24 03:54:21;;;;;;;3.67;2.70;;;7.10;99.90;;;;;;6799870;26;20460;-60
2024/04/24 03:57:29;;;;;;;2.00;1.90;;;7.00;99.90;;;;;;6802476;26;20452;-59
2024/04/24 04:00:37;;;;;;;2.30;2.10;;;7.10;99.90;;;;;;6801798;26;20519;-60
2024/04/24 04:03:43;;;;;;;1.70;1.60;;;7.10;99.90;;;;;;6803479;26;21096;-61
2024/04/24 04:06:53;;;;;;;1.50;1.40;;;7.20;99.90;;;;;;6802040;26;20784;-60
2024/04/24 04:10:02;;;;;;;2.00;1.90;;;7.20;99.90;;;;;;6801880;26;20563;-60
2024/04/24 04:13:11;;;;;;;1.40;1.30;;;7.30;99.90;;;;;;6804353;26;20452;-59
2024/04/24 04:16:21;;;;;;;1.43;1.33;;;7.10;99.90;;;;;;6792712;26;21125;-60
2024/04/24 04:19:27;;;;;;;1.60;1.30;;;7.20;99.90;;;;;;6806208;26;21138;-60
2024/04/24 04:23:00;;;;;;;1.60;1.50;;;7.10;99.90;;;;;;6805190;26;20516;-60
2024/04/24 04:26:09;;;;;;;2.30;1.50;;;7.10;99.90;;;;;;6803435;26;20460;-60
2024/04/24 04:29:16;;;;;;;1.10;1.00;;;7.10;99.90;;;;;;6803008;26;20848;-60
2024/04/24 04:32:22;;;;;;;1.77;1.50;;;7.10;99.90;;;;;;6803412;26;20516;-60
2024/04/24 04:35:36;;;;;;;1.83;1.50;;;7.20;99.90;;;;;;6803326;26;20522;-60
2024/04/24 04:38:58;;;;;;;1.50;1.40;;;7.20;99.90;;;;;;6802347;26;21115;-60
2024/04/24 04:42:04;;;;;;;1.77;1.37;;;7.20;99.90;;;;;;6802280;26;20776;-60
2024/04/24 04:45:14;;;;;;;1.53;1.47;;;7.30;99.90;;;;;;6800933;26;20460;-59
2024/04/24 04:48:24;;;;;;;2.27;1.67;;;7.40;99.90;;;;;;6801912;26;20507;-59
2024/04/24 04:51:31;;;;;;;1.00;1.00;;;7.40;99.90;;;;;;6802328;26;20540;-60
2024/04/24 04:54:54;;;;;;;1.10;1.00;;;7.50;99.90;;;;;;6802322;26;20646;-62
2024/04/24 04:58:11;;;;;;;3.60;1.00;;;7.60;99.90;;;;;;6802297;26;20468;-60
2024/04/24 05:01:19;;;;;;;1.80;1.70;;;7.80;99.90;;;;;;6785845;26;21222;-60
2024/04/24 05:04:29;;;;;;;1.20;1.10;;;8.00;99.90;;;;;;6756626;26;20461;-61
2024/04/24 05:07:50;;;;;;;1.43;1.33;;;8.10;99.90;;;;;;6755791;26;21006;-60
2024/04/24 05:11:02;;;;;;;1.30;1.20;;;8.30;99.90;;;;;;6754508;26;20469;-60
2024/04/24 05:14:10;;;;;;;1.50;1.27;;;8.50;99.90;;;;;;6780468;26;20476;-61
2024/04/24 05:17:24;;;;;;;1.50;1.40;;;8.60;99.90;;;;;;6801188;26;20898;-61
2024/04/24 05:20:34;;;;;;;1.27;1.17;;;8.80;99.90;;;;;;6802424;26;20475;-60
2024/04/24 05:23:47;;;;;;;1.20;1.10;;;8.90;99.90;;;;;;6800547;26;20512;-60
2024/04/24 05:30:41;;;;;;;2.30;2.10;;;9.20;99.90;;;;;;6800020;26;20476;-59
2024/04/24 05:33:49;;;;;;;2.27;2.17;;;9.30;99.90;;;;;;6755290;26;20457;-60
2024/04/24 05:37:02;;;;;;;2.00;1.60;;;9.40;99.90;;;;;;6755702;26;20592;-60
2024/04/24 05:40:11;;;;;;;1.50;1.40;;;9.40;99.90;;;;;;6754605;26;20533;-60
2024/04/24 05:43:33;;;;;;;0.93;0.90;;;9.40;99.90;;;;;;6755699;26;20461;-59
2024/04/24 05:46:38;;;;;;;1.57;0.93;;;9.50;99.90;;;;;;6760379;26;20559;-60
2024/04/24 05:49:55;;;;;;;1.50;1.40;;;9.50;99.90;;;;;;6800863;26;20472;-60
2024/04/24 05:53:03;;;;;;;1.30;1.20;;;9.50;99.90;;;;;;6801249;26;20527;-59
2024/04/24 05:56:12;;;;;;;1.97;1.87;;;9.40;99.90;;;;;;6799176;26;20529;-59
2024/04/24 05:59:25;;;;;;;4.43;2.60;;;9.50;99.90;;;;;;6797701;26;20579;-59
2024/04/24 06:02:34;;;;;;;2.53;2.27;;;9.50;99.90;;;;;;6765409;26;20548;-59
2024/04/24 06:05:48;;;;;;;2.93;2.23;;;9.40;99.90;;;;;;6757185;26;20978;-60
2024/04/24 06:09:04;;;;;;;2.80;2.53;;;8.90;99.90;;;;;;6792587;26;20532;-58
2024/04/24 06:12:14;;;;;;;4.10;2.60;;;8.90;99.90;;;;;;6755006;26;20679;-58
2024/04/24 06:15:32;;;;;;;3.50;3.20;;;9.10;99.90;;;;;;6754689;26;20450;-60
2024/04/24 06:18:43;;;;;;;3.53;3.03;;;9.20;99.90;;;;;;6754493;26;20544;-59
2024/04/24 06:21:51;;;;;;;4.70;4.10;;;9.40;99.90;;;;;;6754061;26;20481;-59
2024/04/24 06:24:58;;;;;;;4.80;3.30;;;9.30;99.90;;;;;;6785290;26;20535;-60
2024/04/24 06:28:08;;;;;;;4.80;3.80;;;9.30;99.90;;;;;;6799103;26;21033;-61
2024/04/24 06:31:23;;;;;;;4.60;3.50;;;9.10;99.90;;;;;;6801499;26;20448;-59
2024/04/24 06:34:38;;;;;;;5.40;4.40;;;9.10;99.90;;;;;;6801528;26;20924;-60
2024/04/24 06:37:48;;;;;;;5.83;4.20;;;9.10;99.90;;;;;;6798865;25;20903;-60
2024/04/24 06:40:57;;;;;;;6.90;4.60;;;9.10;99.90;;;;;;6799699;26;20520;-60
2024/04/24 06:44:02;;;;;;;4.57;3.53;;;9.10;99.90;;;;;;6800776;26;20590;-59
2024/04/24 06:47:16;;;;;;;5.33;4.83;;;9.10;99.90;;;;;;6800774;26;20452;-59
2024/04/24 06:50:24;;;;;;;5.07;3.97;;;9.30;99.90;;;;;;6800070;26;20476;-59
2024/04/24 06:53:35;;;;;;;5.70;4.40;;;9.40;99.90;;;;;;6800050;26;20567;-59
2024/04/24 06:56:43;;;;;;;4.50;4.03;;;9.30;99.90;;;;;;6799254;26;20459;-60
2024/04/24 06:59:50;;;;;;;5.13;4.60;;;9.20;99.90;;;;;;6799614;26;20472;-59
2024/04/24 07:03:16;;;;;;;5.33;4.70;;;9.50;99.90;;;;;;6795882;26;20472;-58
2024/04/24 07:06:33;;;;;;;6.17;4.80;;;9.40;99.90;;;;;;6798343;26;20463;-59
2024/04/24 07:09:41;;;;;;;5.43;4.40;;;9.40;99.90;;;;;;6801831;26;21008;-59
2024/04/24 07:12:53;;;;;;;4.23;3.83;;;9.50;99.90;;;;;;6801219;26;20479;-59
2024/04/24 07:16:03;;;;;;;5.10;4.60;;;9.70;99.90;;;;;;6802835;26;20460;-59
2024/04/24 07:19:30;;;;;;;4.67;4.27;;;10.10;99.90;;;;;;6803206;26;20471;-60
2024/04/24 07:22:37;;;;;;;4.40;3.77;;;10.20;99.90;;;;;;6766026;26;20830;-60
2024/04/24 07:25:45;;;;;;;5.37;4.03;;;10.30;99.90;;;;;;6757067;26;20473;-60
2024/04/24 07:28:59;;;;;;;4.63;4.23;;;10.50;99.90;;;;;;6786270;26;21106;-59
2024/04/24 07:32:08;;;;;;;5.40;4.90;;;10.80;99.90;;;;;;6798532;26;20468;-60
2024/04/24 07:35:36;;;;;;;4.87;4.37;;;10.60;99.90;;;;;;6797571;26;21045;-59
2024/04/24 07:38:45;;;;;;;5.20;4.80;;;10.90;99.90;;;;;;6799332;26;21365;-59
2024/04/24 07:42:03;;;;;;;5.93;4.43;;;10.80;99.90;;;;;;6805321;26;20468;-60
2024/04/24 07:45:09;;;;;;;5.43;4.93;;;11.10;99.50;;;;;;6773238;26;21410;-59
2024/04/24 07:48:23;;;;;;;4.90;4.40;;;11.00;99.30;;;;;;6784160;26;20768;-59
2024/04/24 07:51:42;;;;;;;4.83;4.43;;;10.80;99.20;;;;;;6790745;26;20460;-61
2024/04/24 07:54:50;;;;;;;5.50;4.67;;;11.10;99.30;;;;;;6798885;26;20471;-58
2024/04/24 07:58:03;;;;;;;5.93;5.37;;;11.50;98.30;;;;;;6756298;26;20453;-60
2024/04/24 08:01:11;;;;;;;4.73;4.13;;;11.00;98.80;;;;;;6762469;26;20535;-56
2024/04/24 08:04:19;;;;;;;5.03;4.57;;;11.00;98.70;;;;;;6794626;26;20471;-60
2024/04/24 08:07:42;;;;;;;5.57;3.83;;;11.30;99.10;;;;;;6802497;26;20578;-59
2024/04/24 08:10:49;;;;;;;6.00;4.57;;;11.60;98.50;;;;;;6775747;26;20464;-59
2024/04/24 08:13:57;;;;;;;6.10;5.07;;;11.50;98.60;;;;;;6753166;26;20949;-59
2024/04/24 08:17:07;;;;;;;6.20;4.10;;;11.50;99.40;;;;;;6789325;26;20476;-58
2024/04/24 08:20:14;;;;;;;5.10;4.67;;;11.50;98.50;;;;;;6802179;26;20516;-59
2024/04/24 08:23:28;;;;;;;4.63;4.10;;;11.50;98.60;;;;;;6781869;26;20857;-60
2024/04/24 08:26:50;;;;;;;8.13;4.80;;;11.30;98.10;;;;;;6761706;26;21426;-60
2024/04/24 08:30:00;;;;;;;4.93;4.43;;;11.20;98.50;;;;;;6779464;26;20479;-60
2024/04/24 08:33:09;;;;;;;5.00;3.67;;;10.80;99.20;;;;;;6765617;26;20537;-60
2024/04/24 08:36:16;;;;;;;4.50;3.10;;;10.50;99.80;;;;;;6773045;26;20461;-60
2024/04/24 08:39:25;;;;;;;4.60;4.20;;;10.60;98.70;;;;;;6785058;26;20501;-59
2024/04/24 08:42:34;;;;;;;4.37;3.97;;;10.60;99.30;;;;;;6756574;26;20861;-59
2024/04/24 08:45:46;;;;;;;4.33;3.80;;;11.00;99.70;;;;;;6786237;26;20489;-59
2024/04/24 08:48:55;;;;;;;3.63;3.30;;;11.00;98.20;;;;;;6785831;26;20551;-60
2024/04/24 08:52:04;;;;;;;4.70;3.60;;;11.00;99.30;;;;;;6756206;26;20525;-61
2024/04/24 08:55:21;;;;;;;3.67;3.37;;;11.20;98.50;;;;;;6792743;26;20461;-60
2024/04/24 08:58:37;;;;;;;3.63;3.20;;;11.80;97.70;;;;;;6770823;26;20476;-61
2024/04/24 09:01:51;;;;;;;3.43;2.43;;;12.20;97.30;;;;;;6793394;26;20529;-60
2024/04/24 09:05:00;;;;;;;5.17;3.77;;;12.40;96.80;;;;;;6794245;26;20460;-60
2024/04/24 09:08:11;;;;;;;4.63;2.70;;;12.80;98.00;;;;;;6775019;26;20472;-60
2024/04/24 09:11:22;;;;;;;1.60;1.50;;;13.70;94.90;;;;;;6793390;26;20481;-61
2024/04/24 09:14:36;;;;;;;2.10;1.23;;;14.20;90.10;;;;;;6782937;26;20518;-60
2024/04/24 09:17:43;;;;;;;0.67;0.60;;;14.70;85.50;;;;;;6787378;26;21109;-60
2024/04/24 09:20:51;;;;;;;1.13;0.50;;;14.90;74.40;;;;;;6800376;26;20480;-60
2024/04/24 09:24:00;;;;;;;0.90;0.60;;;14.80;70.20;;;;;;6800336;26;20480;-61
2024/04/24 09:27:10;;;;;;;1.80;0.70;;;15.20;69.80;;;;;;6769219;26;20477;-60
2024/04/24 09:30:16;;;;;;;3.70;0.63;;;15.90;66.20;;;;;;6777993;26;20545;-62
2024/04/24 09:33:25;;;;;;;1.30;0.67;;;16.40;64.20;;;;;;6786801;26;20513;-61
2024/04/24 09:36:41;;;;;;;1.47;0.70;;;16.70;62.70;;;;;;6769124;26;20458;-60
2024/04/24 09:39:51;;;;;;;0.70;0.50;;;16.60;60.20;;;;;;6769896;26;20798;-61
2024/04/24 09:43:01;;;;;;;0.80;0.67;;;16.60;58.40;;;;;;6800834;26;20533;-61
2024/04/24 09:46:07;;;;;;;1.27;0.70;;;17.00;58.50;;;;;;6773995;26;20456;-61
2024/04/24 09:49:13;;;;;;;0.80;0.60;;;17.30;56.90;;;;;;6800344;26;20476;-61
2024/04/24 09:52:20;;;;;;;1.27;0.80;;;17.20;54.90;;;;;;6778362;26;20473;-61
2024/04/24 09:55:36;;;;;;;1.30;0.40;;;17.30;55.00;;;;;;6770966;26;21167;-61
2024/04/24 09:59:05;;;;;;;4.13;0.50;;;17.40;54.00;;;;;;6755377;26;20324;-63
2024/04/24 10:02:18;;;;;;;2.97;0.73;;;17.40;53.50;;;;;;6754892;26;20296;-62
2024/04/24 10:05:34;;;;;;;0.60;0.53;;;17.40;52.50;;;;;;6780454;26;20273;-61
2024/04/24 10:09:01;;;;;;;1.83;0.70;;;17.40;52.10;;;;;;6769098;26;20286;-62
2024/04/24 10:12:33;;;;;;;0.50;0.40;;;17.40;53.00;;;;;;6781854;26;20526;-63
2024/04/24 10:15:54;;;;;;;4.57;1.13;;;17.40;51.80;;;;;;6753942;26;20235;-62
2024/04/24 10:19:02;;;;;;;2.33;0.70;;;17.30;52.20;;;;;;6784954;26;20472;-60
2024/04/24 10:22:09;;;;;;;1.80;0.67;;;17.40;51.80;;;;;;6781386;26;20621;-62
2024/04/24 10:25:25;;;;;;;1.77;0.70;;;17.70;52.40;;;;;;6797105;26;20644;-61
2024/04/24 10:28:37;;;;;;;0.60;0.50;;;17.70;51.00;;;;;;6784474;26;20701;-63
2024/04/24 10:32:08;;;;;;;0.90;0.43;;;17.90;50.30;;;;;;6753930;26;20236;-61
2024/04/24 10:35:19;;;;;;;4.07;0.97;;;18.00;47.50;;;;;;6783642;26;20274;-61
2024/04/24 10:38:28;;;;;;;1.30;0.50;;;18.40;49.70;;;;;;6753053;26;20780;-59
2024/04/24 10:41:40;;;;;;;0.97;0.87;;;18.70;46.30;;;;;;6784871;26;20244;-60
2024/04/24 10:44:46;;;;;;;0.73;0.73;;;19.10;46.40;;;;;;6756109;26;20274;-60
2024/04/24 10:47:55;;;;;;;2.00;0.70;;;19.70;46.10;;;;;;6764527;26;20274;-60
2024/04/24 10:51:01;;;;;;;2.37;0.97;;;19.70;43.60;;;;;;6797855;26;20273;-59
2024/04/24 10:54:16;;;;;;;0.80;0.70;;;20.20;44.20;;;;;;6777550;26;20228;-60
2024/04/24 10:57:36;;;;;;;1.77;0.90;;;20.90;43.30;;;;;;6791113;25;20242;-59
2024/04/24 11:00:55;;;;;;;4.53;1.20;;;21.20;40.70;;;;;;6781422;26;20239;-61
2024/04/24 11:04:17;;;;;;;1.43;1.10;;;20.80;39.80;;;;;;6785316;26;20588;-62
2024/04/24 11:07:23;;;;;;;1.83;0.97;;;20.50;40.70;;;;;;6762004;26;20231;-60
2024/04/24 11:10:51;;;;;;;1.30;1.10;;;20.20;39.40;;;;;;6777370;26;20932;-61
2024/04/24 11:14:06;;;;;;;0.90;0.77;;;19.70;39.60;;;;;;6770971;26;20231;-61
2024/04/24 11:17:20;;;;;;;2.67;0.90;;;19.50;40.90;;;;;;6772758;26;20664;-60
2024/04/24 11:20:37;;;;;;;4.93;1.93;;;19.00;40.50;;;;;;6791737;26;20243;-60
2024/04/24 11:23:51;;;;;;;1.50;1.30;;;17.80;46.50;;;;;;6787380;26;20652;-61
2024/04/24 11:27:00;;;;;;;1.70;1.60;;;16.60;50.90;;;;;;6795856;26;20227;-60
2024/04/24 11:30:14;;;;;;;2.63;1.70;;;15.40;54.20;;;;;;6796528;26;20539;-61
2024/04/24 11:33:25;;;;;;;2.20;1.67;;;15.20;55.50;;;;;;6778591;26;20640;-60
2024/04/24 11:36:34;;;;;;;3.17;1.60;;;14.80;56.10;;;;;;6790289;26;20504;-60
2024/04/24 11:39:43;;;;;;;2.10;1.73;;;14.90;56.70;;;;;;6779772;26;20476;-61
2024/04/24 11:42:55;;;;;;;1.87;1.40;;;14.70;57.90;;;;;;6779596;26;20508;-60
2024/04/24 11:46:10;;;;;;;1.70;1.60;;;14.50;58.10;;;;;;6780238;26;21297;-60
2024/04/24 11:49:23;;;;;;;4.20;1.40;;;13.70;61.00;;;;;;6792883;26;21088;-60
2024/04/24 11:52:42;;;;;;;1.90;1.43;;;13.30;63.20;;;;;;6784443;26;20524;-60
2024/04/24 11:56:10;;;;;;;1.97;1.60;;;13.20;64.70;;;;;;6801267;26;20547;-60
2024/04/24 11:59:18;;;;;;;1.23;0.90;;;13.20;65.30;;;;;;6796092;26;20610;-61
2024/04/24 12:02:29;;;;;;;1.73;1.60;;;13.80;64.70;;;;;;6781558;26;20554;-60
2024/04/24 12:05:40;;;;;;;1.40;1.30;;;13.20;67.60;;;;;;6777082;26;20477;-61
2024/04/24 12:09:10;;;;;;;2.30;1.57;;;13.30;71.00;;;;;;6762362;26;20602;-60
2024/04/24 12:12:18;;;;;;;2.50;1.83;;;13.70;70.40;;;;;;6779456;26;20963;-60
2024/04/24 12:15:25;;;;;;;2.20;1.93;;;12.70;72.10;;;;;;6796732;26;20519;-60
2024/04/24 12:18:37;;;;;;;1.97;1.77;;;12.80;74.10;;;;;;6799797;26;20594;-58
2024/04/24 12:21:48;;;;;;;2.00;1.80;;;12.60;75.60;;;;;;6802323;26;20563;-58
2024/04/24 12:25:12;;;;;;;2.20;2.00;;;12.30;76.80;;;;;;6803126;26;20598;-60
2024/04/24 12:28:20;;;;;;;2.70;2.50;;;12.00;78.30;;;;;;6802086;26;20461;-60
2024/04/24 12:31:28;;;;;;;3.20;2.07;;;11.80;79.20;;;;;;6801975;26;20603;-60
2024/04/24 12:34:35;;;;;;;1.60;1.50;;;12.10;79.90;;;;;;6802177;26;20511;-59
2024/04/24 12:37:42;;;;;;;1.70;1.50;;;12.30;77.80;;;;;;6795677;26;20544;-60
2024/04/24 12:40:54;;;;;;;1.53;1.43;;;12.40;77.60;;;;;;6798306;26;20491;-61
2024/04/24 12:44:11;;;;;;;1.80;1.43;;;12.60;75.50;;;;;;6797458;26;20476;-61
2024/04/24 12:47:20;;;;;;;1.57;1.47;;;12.90;75.20;;;;;;6801695;26;20600;-61
2024/04/24 12:50:31;;;;;;;4.77;1.50;;;13.30;72.90;;;;;;6799522;26;20590;-60
2024/04/24 12:53:39;;;;;;;2.90;1.97;;;14.20;71.30;;;;;;6802365;26;20539;-58
2024/04/24 12:56:57;;;;;;;2.27;2.10;;;14.60;69.80;;;;;;6800967;26;21288;-60
2024/04/24 13:00:04;;;;;;;2.10;1.63;;;14.60;69.20;;;;;;6801089;25;20523;-58
2024/04/24 13:03:19;;;;;;;1.90;1.80;;;15.00;66.50;;;;;;6801706;26;20635;-59
2024/04/24 13:06:33;;;;;;;2.50;2.10;;;15.50;66.00;;;;;;6800507;26;20457;-60
2024/04/24 13:09:48;;;;;;;2.27;2.07;;;15.50;65.90;;;;;;6800614;26;20579;-58
2024/04/24 13:13:16;;;;;;;2.40;1.80;;;16.00;63.70;;;;;;6802124;26;20448;-59
2024/04/24 13:16:24;;;;;;;1.43;1.33;;;16.00;62.10;;;;;;6800472;26;20469;-61
2024/04/24 13:19:39;;;;;;;3.77;2.33;;;15.50;62.30;;;;;;6800369;26;20997;-60
2024/04/24 13:22:46;;;;;;;2.00;1.80;;;15.70;62.50;;;;;;6800338;26;20535;-60
2024/04/24 13:25:54;;;;;;;2.83;1.77;;;15.10;62.50;;;;;;6774636;26;20516;-60
2024/04/24 13:29:06;;;;;;;2.53;1.80;;;15.30;63.00;;;;;;6794250;26;20484;-60
2024/04/24 13:32:18;;;;;;;1.20;1.10;;;15.10;61.10;;;;;;6801480;26;21066;-60
2024/04/24 13:35:26;;;;;;;1.67;1.57;;;15.10;61.80;;;;;;6799974;26;20456;-60
2024/04/24 13:38:39;;;;;;;4.37;1.80;;;14.80;61.20;;;;;;6800227;26;20786;-60
2024/04/24 13:41:50;;;;;;;2.00;1.67;;;14.00;64.30;;;;;;6794854;26;20448;-60
2024/04/24 13:45:18;;;;;;;2.23;1.77;;;13.80;66.80;;;;;;6799808;26;20539;-59
2024/04/24 13:48:29;;;;;;;1.77;1.67;;;13.80;65.10;;;;;;6800451;26;20459;-60
2024/04/24 13:51:48;;;;;;;2.23;1.77;;;13.90;63.70;;;;;;6799609;26;20966;-60
2024/04/24 13:55:02;;;;;;;2.50;2.30;;;14.00;61.80;;;;;;6798343;26;20680;-60
2024/04/24 13:58:18;;;;;;;3.33;1.50;;;14.10;61.90;;;;;;6799048;26;21382;-60
2024/04/24 14:01:38;;;;;;;1.60;1.50;;;14.10;61.80;;;;;;6798989;26;20516;-60
2024/04/24 14:04:47;;;;;;;1.87;1.70;;;14.10;60.90;;;;;;6800045;26;20670;-60
2024/04/24 14:07:54;;;;;;;1.60;1.50;;;13.70;61.10;;;;;;6800523;26;20535;-60
2024/04/24 14:11:07;;;;;;;2.53;1.70;;;13.40;60.70;;;;;;6798262;26;20500;-60
2024/04/24 14:14:19;;;;;;;1.80;1.70;;;13.20;61.50;;;;;;6797940;26;20558;-60
2024/04/24 14:17:43;;;;;;;1.77;1.67;;;13.30;61.70;;;;;;6797742;26;20460;-61
2024/04/24 14:20:50;;;;;;;2.13;1.87;;;13.30;63.10;;;;;;6799232;26;20998;-60
2024/04/24 14:23:58;;;;;;;1.80;1.70;;;13.30;65.40;;;;;;6800002;26;20452;-60
2024/04/24 14:27:12;;;;;;;3.47;2.40;;;13.10;67.50;;;;;;6799661;26;20509;-61
2024/04/24 14:30:20;;;;;;;2.07;1.90;;;12.50;70.80;;;;;;6799408;26;20527;-60
2024/04/24 14:33:38;;;;;;;2.47;2.27;;;11.40;75.90;;;;;;6798635;26;20582;-59
2024/04/24 14:36:43;;;;;;;2.70;1.80;;;11.00;79.50;;;;;;6797912;26;20491;-59
2024/04/24 14:39:54;;;;;;;2.40;2.20;;;10.40;82.50;;;;;;6797984;26;20973;-61
2024/04/24 14:43:02;;;;;;;3.20;2.37;;;10.00;87.00;;;;;;6798865;26;20452;-61
2024/04/24 14:46:14;;;;;;;3.17;2.60;;;10.30;89.30;;;;;;6799821;26;20983;-59
2024/04/24 14:49:24;;;;;;;5.13;2.30;;;10.40;89.70;;;;;;6799716;26;20516;-60
2024/04/24 14:52:37;;;;;;;2.00;1.90;;;9.90;91.20;;;;;;6799666;26;20574;-60
2024/04/24 14:55:52;;;;;;;2.70;2.20;;;9.60;91.80;;;;;;6799337;26;20452;-60
2024/04/24 14:58:59;;;;;;;2.40;1.97;;;9.50;93.70;;;;;;6799133;26;20522;-60
2024/04/24 15:02:10;;;;;;;3.47;3.17;;;9.40;94.40;;;;;;6797971;26;20492;-61
2024/04/24 15:05:32;;;;;;;2.80;2.07;;;9.40;96.20;;;;;;6798989;26;20460;-61
2024/04/24 15:08:41;;;;;;;8.37;5.63;;;9.60;95.80;;;;;;6797476;26;20540;-60
2024/04/24 15:11:53;;;;;;;2.97;2.67;;;9.70;95.50;;;;;;6799260;26;20472;-60
2024/04/24 15:15:10;;;;;;;3.53;3.23;;;9.70;95.30;;;;;;6798513;26;20571;-61
2024/04/24 15:18:28;;;;;;;4.10;3.00;;;9.80;95.60;;;;;;6798919;26;20456;-60
2024/04/24 15:21:46;;;;;;;2.70;2.47;;;9.60;96.40;;;;;;6798144;26;20553;-60
2024/04/24 15:25:03;;;;;;;3.30;2.40;;;9.80;96.30;;;;;;6753793;26;20875;-61
2024/04/24 15:28:11;;;;;;;2.90;2.03;;;10.00;95.40;;;;;;6790799;26;20468;-60
2024/04/24 15:31:23;;;;;;;2.93;2.63;;;10.20;95.50;;;;;;6758838;26;20465;-60
2024/04/24 15:34:33;;;;;;;2.30;2.10;;;10.10;95.60;;;;;;6838721;26;20460;-60
2024/04/24 15:37:49;;;;;;;2.40;2.20;;;10.10;95.90;;;;;;6802365;26;20736;-61
2024/04/24 15:41:01;;;;;;;5.17;2.47;;;9.90;97.10;;;;;;6802504;26;20582;-62
2024/04/24 15:44:08;;;;;;;3.03;2.63;;;10.00;96.90;;;;;;6800681;26;20508;-60
2024/04/24 15:47:19;;;;;;;5.60;3.10;;;9.90;97.80;;;;;;6795913;26;20483;-59
2024/04/24 15:50:31;;;;;;;3.10;2.87;;;9.90;98.40;;;;;;6804451;26;20518;-61
2024/04/24 15:53:54;;;;;;;3.40;3.10;;;10.10;97.70;;;;;;6803939;26;20476;-61
2024/04/24 15:57:05;;;;;;;3.00;2.60;;;10.30;97.60;;;;;;6803160;26;20476;-59
2024/04/24 16:00:19;;;;;;;3.50;3.20;;;10.20;97.60;;;;;;6800674;26;20578;-61
2024/04/24 16:03:27;;;;;;;4.43;3.20;;;10.00;98.10;;;;;;6802855;26;20998;-60
2024/04/24 16:06:41;;;;;;;3.33;3.00;;;10.10;98.10;;;;;;6802938;26;20594;-60
2024/04/24 16:10:03;;;;;;;3.23;2.93;;;10.10;98.40;;;;;;6802434;26;20702;-60
2024/04/24 16:13:13;;;;;;;3.93;3.23;;;9.80;99.40;;;;;;6801068;26;21004;-59
2024/04/24 16:16:26;;;;;;;3.37;3.07;;;9.60;99.90;;;;;;6801334;26;20527;-61
2024/04/24 16:19:32;;;;;;;3.60;3.30;;;9.00;99.90;;;;;;6801444;26;20495;-60
2024/04/24 16:22:38;;;;;;;2.80;2.60;;;8.80;99.90;;;;;;6802077;26;20464;-61
2024/04/24 16:25:52;;;;;;;3.23;2.87;;;8.90;99.90;;;;;;6793377;26;20595;-61
2024/04/24 16:29:03;;;;;;;3.03;2.73;;;8.90;99.90;;;;;;6802390;26;20461;-60
2024/04/24 16:32:11;;;;;;;3.40;3.10;;;8.80;99.90;;;;;;6802471;26;20460;-61
2024/04/24 16:35:19;;;;;;;5.50;3.00;;;8.80;99.90;;;;;;6802179;26;21018;-61
2024/04/24 16:38:28;;;;;;;3.33;3.03;;;8.80;99.90;;;;;;6801503;26;20880;-60
2024/04/24 16:41:46;;;;;;;4.20;3.07;;;8.80;99.90;;;;;;6797155;26;21009;-61
2024/04/24 16:44:54;;;;;;;6.03;2.97;;;8.70;99.90;;;;;;6802214;26;20464;-60
2024/04/24 16:48:03;;;;;;;3.67;3.47;;;8.80;99.90;;;;;;6802529;26;20464;-61
2024/04/24 16:51:15;;;;;;;3.77;3.17;;;8.80;99.90;;;;;;6799137;26;20940;-60
2024/04/24 16:54:23;;;;;;;4.97;3.50;;;8.70;99.90;;;;;;6801999;26;20448;-61
2024/04/24 16:57:45;;;;;;;4.77;3.80;;;8.60;99.90;;;;;;6800477;26;20508;-61